createdAt,value
2022-12-06T00:01:07.005Z,7.23
2022-12-06T00:03:35.158Z,7.00
2022-12-06T00:06:04.160Z,6.80
2022-12-06T00:08:33.382Z,6.70
2022-12-06T00:11:06.492Z,6.33
2022-12-06T00:13:34.514Z,6.67
2022-12-06T00:16:04.130Z,6.83
2022-12-06T00:18:34.570Z,6.10
2022-12-06T00:21:08.182Z,5.70
2022-12-06T00:23:38.958Z,6.10
2022-12-06T00:26:07.894Z,6.40
2022-12-06T00:28:36.833Z,6.87
2022-12-06T00:31:06.208Z,6.27
2022-12-06T00:33:35.800Z,6.40
2022-12-06T00:36:06.532Z,5.93
2022-12-06T00:38:36.462Z,5.87
2022-12-06T00:41:07.704Z,5.60
2022-12-06T00:43:36.627Z,6.03
2022-12-06T00:46:06.408Z,5.30
2022-12-06T00:48:34.536Z,5.70
2022-12-06T00:51:02.607Z,5.27
2022-12-06T00:53:30.524Z,4.93
2022-12-06T00:55:58.474Z,5.20
2022-12-06T00:58:27.692Z,5.53
2022-12-06T01:00:55.867Z,5.17
2022-12-06T01:03:23.920Z,5.20
2022-12-06T01:05:52.099Z,5.50
2022-12-06T01:08:20.724Z,5.90
2022-12-06T01:10:55.369Z,5.80
2022-12-06T01:13:23.277Z,5.90
2022-12-06T01:15:54.194Z,5.43
2022-12-06T01:18:22.476Z,5.63
2022-12-06T01:20:50.395Z,5.10
2022-12-06T01:23:18.271Z,5.33
2022-12-06T01:25:53.227Z,4.97
2022-12-06T01:28:21.103Z,4.90
2022-12-06T01:30:49.064Z,4.87
2022-12-06T01:33:18.349Z,4.57
2022-12-06T01:35:46.308Z,5.00
2022-12-06T01:38:14.211Z,5.10
2022-12-06T01:40:44.305Z,4.80
2022-12-06T01:43:30.999Z,4.90
2022-12-06T01:46:01.179Z,4.40
2022-12-06T01:48:30.689Z,5.13
2022-12-06T01:50:59.983Z,4.77
2022-12-06T01:53:28.300Z,4.43
2022-12-06T01:55:56.198Z,4.60
2022-12-06T01:58:30.067Z,4.50
2022-12-06T02:00:57.976Z,4.60
2022-12-06T02:03:31.208Z,4.27
2022-12-06T02:06:00.526Z,4.87
2022-12-06T02:08:29.595Z,4.37
2022-12-06T02:10:57.835Z,4.43
2022-12-06T02:13:26.568Z,4.50
2022-12-06T02:16:04.508Z,5.10
2022-12-06T02:18:42.447Z,4.90
2022-12-06T02:21:18.133Z,4.50
2022-12-06T02:24:24.731Z,4.53
2022-12-06T02:26:58.991Z,5.20
2022-12-06T02:29:53.933Z,4.57
2022-12-06T02:32:29.089Z,4.33
2022-12-06T02:35:02.500Z,4.13
2022-12-06T02:37:35.497Z,3.80
2022-12-06T02:40:08.975Z,4.33
2022-12-06T02:42:42.993Z,4.53
2022-12-06T02:45:14.585Z,4.33
2022-12-06T02:47:45.329Z,4.00
2022-12-06T02:50:19.658Z,4.50
2022-12-06T02:52:51.584Z,4.10
2022-12-06T02:55:21.225Z,4.43
2022-12-06T02:57:51.360Z,4.10
2022-12-06T03:00:41.418Z,4.17
2022-12-06T03:03:46.227Z,4.67
2022-12-06T03:06:36.073Z,5.20
2022-12-06T03:09:12.466Z,4.57
2022-12-06T03:11:48.279Z,4.47
2022-12-06T03:14:21.525Z,3.53
2022-12-06T03:16:52.109Z,4.20
2022-12-06T03:19:23.377Z,4.17
2022-12-06T03:21:58.558Z,3.90
2022-12-06T03:24:28.498Z,4.50
2022-12-06T03:26:58.706Z,4.20
2022-12-06T03:29:29.102Z,4.60
2022-12-06T03:32:02.273Z,4.33
2022-12-06T03:34:35.803Z,4.90
2022-12-06T03:37:06.649Z,4.27
2022-12-06T03:39:38.497Z,4.90
2022-12-06T03:42:06.688Z,5.03
2022-12-06T03:44:35.268Z,4.37
2022-12-06T03:47:10.036Z,4.13
2022-12-06T03:49:44.849Z,4.40
2022-12-06T03:52:13.221Z,4.17
2022-12-06T03:54:41.451Z,4.50
2022-12-06T03:57:10.594Z,4.07
2022-12-06T03:59:38.605Z,4.43
2022-12-06T04:02:06.570Z,4.43
2022-12-06T04:04:34.500Z,3.73
2022-12-06T04:07:03.791Z,4.37
2022-12-06T04:09:49.090Z,4.90
2022-12-06T04:12:34.569Z,4.53
2022-12-06T04:15:02.442Z,4.50
2022-12-06T04:17:47.609Z,4.80
2022-12-06T04:20:15.517Z,5.17
2022-12-06T04:23:02.364Z,4.90
2022-12-06T04:25:30.266Z,5.43
2022-12-06T04:28:16.061Z,5.63
2022-12-06T04:31:01.634Z,5.83
2022-12-06T04:33:47.459Z,5.10
2022-12-06T04:36:33.925Z,6.90
2022-12-06T04:39:03.393Z,5.83
2022-12-06T04:41:48.695Z,6.50
2022-12-06T04:44:16.995Z,5.53
2022-12-06T04:46:57.061Z,5.07
2022-12-06T04:49:26.387Z,6.10
2022-12-06T04:51:54.503Z,5.63
2022-12-06T04:54:24.545Z,5.80
2022-12-06T04:56:53.002Z,5.73
2022-12-06T04:59:21.537Z,5.50
2022-12-06T05:01:49.579Z,5.00
2022-12-06T05:04:17.517Z,6.10
2022-12-06T05:06:45.793Z,5.00
2022-12-06T05:09:13.882Z,5.70
2022-12-06T05:11:43.897Z,5.27
2022-12-06T05:14:11.781Z,5.80
2022-12-06T05:16:39.708Z,5.60
2022-12-06T05:19:07.937Z,5.77
2022-12-06T05:21:35.812Z,6.00
2022-12-06T05:24:03.798Z,6.47
2022-12-06T05:26:31.798Z,7.17
2022-12-06T05:29:01.048Z,5.67
2022-12-06T05:31:29.003Z,6.47
2022-12-06T05:33:56.886Z,5.80
2022-12-06T05:36:27.651Z,6.20
2022-12-06T05:38:57.104Z,6.00
2022-12-06T05:41:25.540Z,5.60
2022-12-06T05:43:53.405Z,5.57
2022-12-06T05:46:22.643Z,5.93
2022-12-06T05:48:50.621Z,6.07
2022-12-06T05:51:18.490Z,5.70
2022-12-06T05:53:47.576Z,5.67
2022-12-06T05:56:15.518Z,5.83
2022-12-06T05:58:43.518Z,6.53
2022-12-06T06:01:11.408Z,6.50
2022-12-06T06:03:46.902Z,6.10
2022-12-06T06:06:15.918Z,6.70
2022-12-06T06:08:43.850Z,6.33
2022-12-06T06:11:11.860Z,6.87
2022-12-06T06:13:39.759Z,5.60
2022-12-06T06:16:07.926Z,5.93
2022-12-06T06:18:36.110Z,6.10
2022-12-06T06:21:05.437Z,6.20
2022-12-06T06:23:33.944Z,6.70
2022-12-06T06:26:01.838Z,7.10
2022-12-06T06:28:33.171Z,11.20
2022-12-06T06:31:03.727Z,6.13
2022-12-06T06:33:31.662Z,5.50
2022-12-06T06:35:59.578Z,5.80
2022-12-06T06:38:28.865Z,5.63
2022-12-06T06:40:56.766Z,5.80
2022-12-06T06:43:24.634Z,5.53
2022-12-06T06:45:56.746Z,5.33
2022-12-06T06:48:25.882Z,5.50
2022-12-06T06:50:57.248Z,5.90
2022-12-06T06:53:28.042Z,6.93
2022-12-06T06:55:56.482Z,7.30
2022-12-06T06:58:25.026Z,5.97
2022-12-06T07:00:55.157Z,6.93
2022-12-06T07:03:23.752Z,6.73
2022-12-06T07:05:55.485Z,6.17
2022-12-06T07:08:23.725Z,5.80
2022-12-06T07:10:54.268Z,5.70
2022-12-06T07:13:24.237Z,5.63
2022-12-06T07:15:52.784Z,5.50
2022-12-06T07:18:21.468Z,5.60
2022-12-06T07:20:50.312Z,5.47
2022-12-06T07:23:18.210Z,5.17
2022-12-06T07:25:46.080Z,5.60
2022-12-06T07:28:15.296Z,5.10
2022-12-06T07:30:43.281Z,4.93
2022-12-06T07:33:11.159Z,5.23
2022-12-06T07:38:26.846Z,5.30
2022-12-06T07:41:04.327Z,4.93
2022-12-06T07:43:57.133Z,5.27
2022-12-06T07:46:25.019Z,4.97
2022-12-06T07:48:52.923Z,5.00
2022-12-06T07:51:20.767Z,4.60
2022-12-06T07:53:48.691Z,4.80
2022-12-06T07:56:16.591Z,5.07
2022-12-06T07:58:45.969Z,4.80
2022-12-06T08:01:13.869Z,4.90
2022-12-06T08:03:41.837Z,5.10
2022-12-06T08:06:10.025Z,5.03
2022-12-06T08:08:38.520Z,5.60
2022-12-06T08:11:08.426Z,5.33
2022-12-06T08:13:38.706Z,5.77
2022-12-06T08:16:10.234Z,5.70
2022-12-06T08:18:38.387Z,4.83
2022-12-06T08:21:06.754Z,4.60
2022-12-06T08:23:34.936Z,5.07
2022-12-06T08:26:05.279Z,4.60
2022-12-06T08:28:34.257Z,4.57
2022-12-06T08:31:08.509Z,5.00
2022-12-06T08:33:36.915Z,4.83
2022-12-06T08:36:09.366Z,4.67
2022-12-06T08:38:37.456Z,4.47
2022-12-06T08:41:06.179Z,4.83
2022-12-06T08:43:34.069Z,4.80
2022-12-06T08:46:01.993Z,4.43
2022-12-06T08:48:31.243Z,5.10
2022-12-06T08:51:03.224Z,5.30
2022-12-06T08:53:31.082Z,5.43
2022-12-06T08:56:02.827Z,5.03
2022-12-06T08:58:31.225Z,5.20
2022-12-06T09:00:59.473Z,4.63
2022-12-06T09:03:27.812Z,5.13
2022-12-06T09:05:57.045Z,4.70
2022-12-06T09:08:25.063Z,5.57
2022-12-06T09:10:52.957Z,5.63
2022-12-06T09:13:20.826Z,5.27
2022-12-06T09:15:48.693Z,5.50
2022-12-06T09:18:16.595Z,5.73
2022-12-06T09:20:44.509Z,5.57
2022-12-06T09:23:13.680Z,6.07
2022-12-06T09:25:42.838Z,5.37
2022-12-06T09:28:11.849Z,5.23
2022-12-06T09:30:39.794Z,5.53
2022-12-06T09:33:07.807Z,6.27
2022-12-06T09:35:36.899Z,5.80
2022-12-06T09:38:07.086Z,5.90
2022-12-06T09:40:44.472Z,6.40
2022-12-06T09:43:26.068Z,6.60
2022-12-06T09:46:09.357Z,6.80
2022-12-06T09:49:19.467Z,6.93
2022-12-06T09:52:14.555Z,6.70
2022-12-06T09:55:00.231Z,7.10
2022-12-06T09:57:36.202Z,8.53
2022-12-06T10:00:12.550Z,8.30
2022-12-06T10:03:03.067Z,9.43
2022-12-06T10:05:51.840Z,9.23
2022-12-06T10:08:29.847Z,10.57
2022-12-06T10:11:06.849Z,12.87
2022-12-06T10:13:52.829Z,9.40
2022-12-06T10:16:34.174Z,9.57
2022-12-06T10:19:10.652Z,8.83
2022-12-06T10:21:52.064Z,8.93
2022-12-06T10:24:35.664Z,9.07
2022-12-06T10:27:09.523Z,7.60
2022-12-06T10:29:53.072Z,7.73
2022-12-06T10:32:36.772Z,8.33
2022-12-06T10:35:17.453Z,8.70
2022-12-06T10:37:57.037Z,8.33
2022-12-06T10:40:29.000Z,8.70
2022-12-06T10:43:03.292Z,7.90
2022-12-06T10:45:53.426Z,8.03
2022-12-06T10:48:30.493Z,8.13
2022-12-06T10:51:10.101Z,8.30
2022-12-06T10:53:42.598Z,7.20
2022-12-06T10:56:17.629Z,7.83
2022-12-06T10:58:52.427Z,7.87
2022-12-06T11:01:26.586Z,7.40
2022-12-06T11:04:01.173Z,7.33
2022-12-06T11:06:33.160Z,7.43
2022-12-06T11:09:05.647Z,7.27
2022-12-06T11:11:36.855Z,7.80
2022-12-06T11:14:07.952Z,6.63
2022-12-06T11:16:42.085Z,6.70
2022-12-06T11:19:21.566Z,7.27
2022-12-06T11:21:54.385Z,5.27
2022-12-06T11:24:27.856Z,5.73
2022-12-06T11:27:02.604Z,5.93
2022-12-06T11:29:30.904Z,5.37
2022-12-06T11:32:02.897Z,4.87
2022-12-06T11:34:36.350Z,4.80
2022-12-06T11:37:06.539Z,4.20
2022-12-06T11:39:35.528Z,4.60
2022-12-06T11:42:05.201Z,4.97
2022-12-06T11:44:44.985Z,4.83
2022-12-06T11:47:21.760Z,5.20
2022-12-06T11:49:52.422Z,4.60
2022-12-06T11:52:26.944Z,4.23
2022-12-06T11:54:59.017Z,4.53
2022-12-06T11:57:32.809Z,4.33
2022-12-06T12:00:16.767Z,4.67
2022-12-06T12:02:48.691Z,4.87
2022-12-06T12:05:22.378Z,4.10
2022-12-06T12:07:55.019Z,4.70
2022-12-06T12:10:31.496Z,4.70
2022-12-06T12:13:37.672Z,4.57
2022-12-06T12:16:13.136Z,5.87
2022-12-06T12:18:51.449Z,6.07
2022-12-06T12:21:32.344Z,6.83
2022-12-06T12:24:00.526Z,7.83
2022-12-06T12:26:38.153Z,5.20
2022-12-06T12:29:16.902Z,3.90
2022-12-06T12:31:53.588Z,3.50
2022-12-06T12:34:25.653Z,4.07
2022-12-06T12:36:56.055Z,4.50
2022-12-06T12:39:27.523Z,4.27
2022-12-06T12:41:55.477Z,4.27
2022-12-06T12:44:42.460Z,4.07
2022-12-06T12:47:18.880Z,4.73
2022-12-06T12:50:02.090Z,4.60
2022-12-06T12:52:31.891Z,5.17
2022-12-06T12:55:04.155Z,8.63
2022-12-06T12:57:32.919Z,5.20
2022-12-06T13:00:01.411Z,3.93
2022-12-06T13:02:31.880Z,4.93
2022-12-06T13:05:31.438Z,4.70
2022-12-06T13:07:56.506Z,5.60
2022-12-06T13:10:31.226Z,4.70
2022-12-06T13:13:02.790Z,4.83
2022-12-06T13:15:36.146Z,4.30
2022-12-06T13:18:12.310Z,4.47
2022-12-06T13:20:41.954Z,4.87
2022-12-06T13:23:14.514Z,4.20
2022-12-06T13:25:47.939Z,4.17
2022-12-06T13:28:19.981Z,5.10
2022-12-06T13:30:50.725Z,4.37
2022-12-06T13:33:22.196Z,4.27
2022-12-06T13:35:56.413Z,4.23
2022-12-06T13:38:30.147Z,3.93
2022-12-06T13:40:58.894Z,4.23
2022-12-06T13:43:57.557Z,4.53
2022-12-06T13:46:31.102Z,4.80
2022-12-06T13:49:01.258Z,4.50
2022-12-06T13:51:47.851Z,5.17
2022-12-06T13:54:37.085Z,4.23
2022-12-06T13:57:23.182Z,4.03
2022-12-06T13:59:51.438Z,3.80
2022-12-06T14:02:53.035Z,4.23
2022-12-06T14:08:27.849Z,7.57
2022-12-06T14:11:13.712Z,4.63
2022-12-06T14:13:42.523Z,5.17
2022-12-06T14:16:15.790Z,4.47
2022-12-06T14:18:44.279Z,3.30
2022-12-06T14:21:23.842Z,3.53
2022-12-06T14:23:53.276Z,4.00
2022-12-06T14:26:24.081Z,3.57
2022-12-06T14:28:54.368Z,3.80
2022-12-06T14:31:26.278Z,3.87
2022-12-06T14:33:56.182Z,4.13
2022-12-06T14:36:30.093Z,4.53
2022-12-06T14:39:02.642Z,4.10
2022-12-06T14:41:51.434Z,4.10
2022-12-06T14:44:21.015Z,4.33
2022-12-06T14:46:50.428Z,4.07
2022-12-06T14:49:38.748Z,5.73
2022-12-06T14:52:21.536Z,4.50
2022-12-06T14:54:52.788Z,3.90
2022-12-06T14:57:26.094Z,4.60
2022-12-06T15:00:15.154Z,4.97
2022-12-06T15:03:02.009Z,8.23
2022-12-06T15:05:35.055Z,5.10
2022-12-06T15:08:41.794Z,3.80
2022-12-06T15:11:49.727Z,4.20
2022-12-06T15:14:19.908Z,4.10
2022-12-06T15:16:58.264Z,4.70
2022-12-06T15:19:27.014Z,4.40
2022-12-06T15:21:55.133Z,4.40
2022-12-06T15:24:25.068Z,4.23
2022-12-06T15:26:54.870Z,5.10
2022-12-06T15:29:23.653Z,4.73
2022-12-06T15:31:55.620Z,4.00
2022-12-06T15:34:26.853Z,4.27
2022-12-06T15:37:15.134Z,4.70
2022-12-06T15:39:43.610Z,4.47
2022-12-06T15:42:19.028Z,4.87
2022-12-06T15:44:49.819Z,4.83
2022-12-06T15:47:19.627Z,4.77
2022-12-06T15:49:48.913Z,4.67
2022-12-06T15:52:18.652Z,5.67
2022-12-06T15:54:47.193Z,4.97
2022-12-06T15:57:17.252Z,5.07
2022-12-06T15:59:45.423Z,4.70
2022-12-06T16:02:16.368Z,4.43
2022-12-06T16:04:45.586Z,5.80
2022-12-06T16:07:19.072Z,6.23
2022-12-06T16:09:47.982Z,5.93
2022-12-06T16:12:17.494Z,7.87
2022-12-06T16:14:45.436Z,6.50
2022-12-06T16:17:13.349Z,11.43
2022-12-06T16:19:58.821Z,7.73
2022-12-06T16:22:40.647Z,7.30
2022-12-06T16:25:09.184Z,5.60
2022-12-06T16:27:38.399Z,4.93
2022-12-06T16:30:08.046Z,4.30
2022-12-06T16:32:35.995Z,4.67
2022-12-06T16:35:04.265Z,5.73
2022-12-06T16:37:32.469Z,5.33
2022-12-06T16:40:00.362Z,5.13
2022-12-06T16:42:28.341Z,4.73
2022-12-06T16:44:57.635Z,4.40
2022-12-06T16:49:52.377Z,4.63
2022-12-06T16:52:20.394Z,4.60
2022-12-06T16:54:48.586Z,4.50
2022-12-06T16:57:17.506Z,4.40
2022-12-06T16:59:45.586Z,4.77
2022-12-06T17:02:26.846Z,4.80
2022-12-06T17:04:55.444Z,4.00
2022-12-06T17:07:23.705Z,4.47
2022-12-06T17:09:51.577Z,4.33
2022-12-06T17:12:19.684Z,4.47
2022-12-06T17:14:47.762Z,4.17
2022-12-06T17:17:17.317Z,4.13
2022-12-06T17:19:46.628Z,4.10
2022-12-06T17:22:16.547Z,4.07
2022-12-06T17:24:44.716Z,4.07
2022-12-06T17:27:14.769Z,4.33
2022-12-06T17:29:43.686Z,4.60
2022-12-06T17:32:11.913Z,4.10
2022-12-06T17:34:39.915Z,4.40
2022-12-06T17:37:09.286Z,4.60
2022-12-06T17:39:37.539Z,4.70
2022-12-06T17:42:23.436Z,4.60
2022-12-06T17:44:51.672Z,3.97
2022-12-06T17:47:19.924Z,3.80
2022-12-06T17:49:47.844Z,4.30
2022-12-06T17:52:17.440Z,4.03
2022-12-06T17:54:45.627Z,4.10
2022-12-06T17:57:16.155Z,4.80
2022-12-06T17:59:45.321Z,4.43
2022-12-06T18:02:16.168Z,5.17
2022-12-06T18:04:45.317Z,4.67
2022-12-06T18:07:14.410Z,4.87
2022-12-06T18:09:43.813Z,5.47
2022-12-06T18:12:14.293Z,7.20
2022-12-06T18:14:42.274Z,6.33
2022-12-06T18:17:10.774Z,6.77
2022-12-06T18:19:40.271Z,5.87
2022-12-06T18:22:08.545Z,6.27
2022-12-06T18:24:36.677Z,6.13
2022-12-06T18:27:06.466Z,5.20
2022-12-06T18:29:35.072Z,4.53
2022-12-06T18:32:03.417Z,4.77
2022-12-06T18:34:31.965Z,5.00
2022-12-06T18:36:59.943Z,4.97
2022-12-06T18:39:28.053Z,5.10
2022-12-06T18:41:56.434Z,14.37
2022-12-06T18:44:25.900Z,5.13
2022-12-06T18:46:53.928Z,5.67
2022-12-06T18:49:22.050Z,7.67
2022-12-06T18:51:50.200Z,11.13
2022-12-06T18:54:18.204Z,9.57
2022-12-06T18:56:46.122Z,7.53
2022-12-06T18:59:14.066Z,6.37
2022-12-06T19:01:43.433Z,5.20
2022-12-06T19:04:14.681Z,5.37
2022-12-06T19:06:44.200Z,5.20
2022-12-06T19:09:14.377Z,5.20
2022-12-06T19:11:44.201Z,5.13
2022-12-06T19:14:12.414Z,5.03
2022-12-06T19:16:41.878Z,4.40
2022-12-06T19:19:16.526Z,3.93
2022-12-06T19:21:45.524Z,4.80
2022-12-06T19:24:15.580Z,5.03
2022-12-06T19:26:43.747Z,5.10
2022-12-06T19:29:11.732Z,5.47
2022-12-06T19:31:39.706Z,6.00
2022-12-06T19:34:08.086Z,5.33
2022-12-06T19:36:37.347Z,5.20
2022-12-06T19:39:07.003Z,5.43
2022-12-06T19:41:56.084Z,5.57
2022-12-06T19:44:23.390Z,5.63
2022-12-06T19:46:52.557Z,5.00
2022-12-06T19:49:22.888Z,5.30
2022-12-06T19:51:53.014Z,5.67
2022-12-06T19:54:22.722Z,5.37
2022-12-06T19:56:53.508Z,5.30
2022-12-06T19:59:21.543Z,5.20
2022-12-06T20:01:50.198Z,5.10
2022-12-06T20:04:20.403Z,5.73
2022-12-06T20:06:49.107Z,5.27
2022-12-06T20:09:19.307Z,5.10
2022-12-06T20:12:03.337Z,4.83
2022-12-06T20:14:35.877Z,4.50
2022-12-06T20:17:05.062Z,4.70
2022-12-06T20:19:33.743Z,4.77
2022-12-06T20:22:01.890Z,4.23
2022-12-06T20:24:31.510Z,4.60
2022-12-06T20:26:59.412Z,4.57
2022-12-06T20:29:29.875Z,4.40
2022-12-06T20:31:59.417Z,4.60
2022-12-06T20:34:29.447Z,4.60
2022-12-06T20:36:57.713Z,4.47
2022-12-06T20:39:28.528Z,4.40
2022-12-06T20:41:58.044Z,4.50
2022-12-06T20:44:26.038Z,4.70
2022-12-06T20:46:54.784Z,4.40
2022-12-06T20:49:22.829Z,4.17
2022-12-06T20:51:53.337Z,4.33
2022-12-06T20:54:23.304Z,4.80
2022-12-06T20:56:53.150Z,5.10
2022-12-06T20:59:22.807Z,4.67
2022-12-06T21:01:50.879Z,5.33
2022-12-06T21:04:19.189Z,4.60
2022-12-06T21:06:47.166Z,4.27
2022-12-06T21:09:15.103Z,4.33
2022-12-06T21:11:43.055Z,4.37
2022-12-06T21:14:13.166Z,4.33
2022-12-06T21:16:43.698Z,4.40
2022-12-06T21:19:14.318Z,5.03
2022-12-06T21:21:45.253Z,5.57
2022-12-06T21:24:16.161Z,4.43
2022-12-06T21:26:44.144Z,4.70
2022-12-06T21:29:16.651Z,4.60
2022-12-06T21:31:46.448Z,4.70
2022-12-06T21:34:15.734Z,4.87
2022-12-06T21:36:44.266Z,5.07
2022-12-06T21:39:13.617Z,4.87
2022-12-06T21:41:41.876Z,4.90
2022-12-06T21:44:09.848Z,5.70
2022-12-06T21:46:37.778Z,5.63
2022-12-06T21:49:07.103Z,5.23
2022-12-06T21:51:35.104Z,5.10
2022-12-06T21:54:03.034Z,8.47
2022-12-06T21:56:32.762Z,5.90
2022-12-06T21:59:01.365Z,5.73
2022-12-06T22:01:31.353Z,5.60
2022-12-06T22:04:02.172Z,5.70
2022-12-06T22:06:33.638Z,6.13
2022-12-06T22:09:04.392Z,5.17
2022-12-06T22:11:32.902Z,5.43
2022-12-06T22:14:01.861Z,6.73
2022-12-06T22:16:30.237Z,6.20
2022-12-06T22:18:58.873Z,6.30
2022-12-06T22:21:29.280Z,6.00
2022-12-06T22:23:59.363Z,5.50
2022-12-06T22:26:29.273Z,6.10
2022-12-06T22:28:58.653Z,5.97
2022-12-06T22:31:28.618Z,6.40
2022-12-06T22:33:58.174Z,5.77
2022-12-06T22:36:26.634Z,6.30
2022-12-06T22:38:56.632Z,6.40
2022-12-06T22:41:26.213Z,6.27
2022-12-06T22:43:55.837Z,5.80
2022-12-06T22:46:26.216Z,6.87
2022-12-06T22:48:54.439Z,6.87
2022-12-06T22:51:24.500Z,6.97
2022-12-06T22:53:55.087Z,6.70
2022-12-06T22:56:23.388Z,6.23
2022-12-06T22:58:54.223Z,6.73
2022-12-06T23:01:23.903Z,6.60
2022-12-06T23:03:53.728Z,6.13
2022-12-06T23:06:23.619Z,6.30
2022-12-06T23:08:52.077Z,6.40
2022-12-06T23:11:22.417Z,6.00
2022-12-06T23:13:50.585Z,6.30
2022-12-06T23:16:21.784Z,6.33
2022-12-06T23:18:50.355Z,6.07
2022-12-06T23:21:19.994Z,6.27
2022-12-06T23:23:50.317Z,5.50
2022-12-06T23:26:20.307Z,5.77
2022-12-06T23:28:49.227Z,6.10
2022-12-06T23:31:20.751Z,5.83
2022-12-06T23:33:52.589Z,5.60
2022-12-06T23:36:22.279Z,5.43
2022-12-06T23:38:50.351Z,5.33
2022-12-06T23:41:21.226Z,5.87
2022-12-06T23:43:49.513Z,5.63
2022-12-06T23:46:22.610Z,5.80
2022-12-06T23:48:51.185Z,5.90
2022-12-06T23:51:20.564Z,6.07
2022-12-06T23:53:52.373Z,5.60
2022-12-06T23:56:21.704Z,5.70
2022-12-06T23:58:50.917Z,5.97
